F/V Le Dolmen — FHMD — position and weather

sailwx.info

Track history (hours):
 
Tides and Currents Weather Stations Pressure Air Temp Water Temp Dewpoint Dewpoint Depression Visibility Wind Speed Wind Dir Waves Ship Positions

F/V Le Dolmen

Last reported at 2014-Aug-26 10:24 UTC. Time now 2014-Aug-27 21:19 UTC.
Position N 51°34' W 010°01'.

Length 18 m.

Type: Fishing. MMSI: 228374000.

Date/timePositionNaut miles runAvg speedWind from/ knotsBaromVisibWave heightAir tempDewpointWater temp
2014-Aug-26 10:24N 51°34' W 010°01'7 7.5
2014-Aug-26 09:30N 51°39' W 009°54'0 0.0
2014-Aug-26 08:27N 51°39' W 009°54'0 0.0
2014-Aug-26 07:11N 51°39' W 009°54'0 0.0
2014-Aug-26 06:33N 51°39' W 009°54'0 0.0
2014-Aug-26 05:32N 51°39' W 009°54'0 0.0
2014-Aug-26 04:33N 51°39' W 009°54'0 0.0
2014-Aug-26 03:28N 51°39' W 009°54'0 0.0
2014-Aug-26 02:32N 51°39' W 009°54'0 0.0
2014-Aug-26 01:32N 51°39' W 009°54'0 0.0
2014-Aug-26 00:33N 51°39' W 009°54'0 0.0
2014-Aug-25 23:28N 51°39' W 009°54'0 0.0
2014-Aug-25 22:33N 51°39' W 009°54'0 0.0
2014-Aug-25 21:33N 51°39' W 009°54'0 0.0
2014-Aug-25 20:33N 51°39' W 009°54'0 0.0
2014-Aug-25 19:29N 51°39' W 009°54'0 0.0
2014-Aug-25 18:33N 51°39' W 009°54'0 0.0
2014-Aug-25 17:33N 51°39' W 009°54'0 0.0
2014-Aug-25 16:31N 51°39' W 009°54'0 0.0
2014-Aug-25 15:33N 51°39' W 009°54'0 0.0
2014-Aug-25 14:32N 51°39' W 009°54'0 0.0
2014-Aug-25 13:22N 51°39' W 009°54'0 0.0
2014-Aug-25 12:33N 51°39' W 009°54'0 0.0
2014-Aug-25 11:32N 51°39' W 009°54'0 0.0
2014-Aug-25 10:31N 51°39' W 009°54'0 0.0
2014-Aug-25 09:33N 51°39' W 009°54'0 0.0
2014-Aug-25 08:32N 51°39' W 009°54'0 0.0
2014-Aug-25 07:26N 51°39' W 009°54'0 0.0
2014-Aug-25 06:32N 51°39' W 009°54'0 0.0
2014-Aug-25 05:28N 51°39' W 009°54'1 0.5
2014-Aug-25 04:31N 51°38' W 009°55'7 6.6
2014-Aug-25 03:30N 51°33' W 010°02'12 6.2
2014-Aug-25 01:31N 51°26' W 010°17'  
2014-Aug-16 23:19N 47°54' W 004°46'54 8.0
2014-Aug-16 16:33N 47°41' W 003°28'5 5.0
2014-Aug-16 15:33N 47°44' W 003°22'0 0.1
2014-Aug-16 14:34N 47°44' W 003°22'  
Track history (hours):
 
Tides and Currents Weather Stations Pressure Air Temp Water Temp Dewpoint Dewpoint Depression Visibility Wind Speed Wind Dir Waves Ship Positions

F/V Le Dolmen

Last reported at 2014-Aug-26 10:24 UTC. Time now 2014-Aug-27 21:19 UTC.
Position N 51°34' W 010°01'.

Length 18 m.

Type: Fishing. MMSI: 228374000.

Date/timePositionNaut miles runAvg speedWind from/ knotsBaromVisibWave heightAir tempDewpointWater temp
2014-Aug-26 10:24N 51°34' W 010°01'7 7.5
2014-Aug-26 09:30N 51°39' W 009°54'0 0.0
2014-Aug-26 08:27N 51°39' W 009°54'0 0.0
2014-Aug-26 07:11N 51°39' W 009°54'0 0.0
2014-Aug-26 06:33N 51°39' W 009°54'0 0.0
2014-Aug-26 05:32N 51°39' W 009°54'0 0.0
2014-Aug-26 04:33N 51°39' W 009°54'0 0.0
2014-Aug-26 03:28N 51°39' W 009°54'0 0.0
2014-Aug-26 02:32N 51°39' W 009°54'0 0.0
2014-Aug-26 01:32N 51°39' W 009°54'0 0.0
2014-Aug-26 00:33N 51°39' W 009°54'0 0.0
2014-Aug-25 23:28N 51°39' W 009°54'0 0.0
2014-Aug-25 22:33N 51°39' W 009°54'0 0.0
2014-Aug-25 21:33N 51°39' W 009°54'0 0.0
2014-Aug-25 20:33N 51°39' W 009°54'0 0.0
2014-Aug-25 19:29N 51°39' W 009°54'0 0.0
2014-Aug-25 18:33N 51°39' W 009°54'0 0.0
2014-Aug-25 17:33N 51°39' W 009°54'0 0.0
2014-Aug-25 16:31N 51°39' W 009°54'0 0.0
2014-Aug-25 15:33N 51°39' W 009°54'0 0.0
2014-Aug-25 14:32N 51°39' W 009°54'0 0.0
2014-Aug-25 13:22N 51°39' W 009°54'0 0.0
2014-Aug-25 12:33N 51°39' W 009°54'0 0.0
2014-Aug-25 11:32N 51°39' W 009°54'0 0.0
2014-Aug-25 10:31N 51°39' W 009°54'0 0.0
2014-Aug-25 09:33N 51°39' W 009°54'0 0.0
2014-Aug-25 08:32N 51°39' W 009°54'0 0.0
2014-Aug-25 07:26N 51°39' W 009°54'0 0.0
2014-Aug-25 06:32N 51°39' W 009°54'0 0.0
2014-Aug-25 05:28N 51°39' W 009°54'1 0.5
2014-Aug-25 04:31N 51°38' W 009°55'7 6.6
2014-Aug-25 03:30N 51°33' W 010°02'12 6.2
2014-Aug-25 01:31N 51°26' W 010°17'  
2014-Aug-16 23:19N 47°54' W 004°46'54 8.0
2014-Aug-16 16:33N 47°41' W 003°28'5 5.0
2014-Aug-16 15:33N 47°44' W 003°22'0 0.1
2014-Aug-16 14:34N 47°44' W 003°22'  

Dump ship's entire track history